Time;durP1;ratioP1;P1;durP2;ratioP2;P2;SDS_P1;SDS_P2;PMS_P1;PMS_P2;Temp;Humidity;BMP_temperature;BMP_pressure;BME280_temperature;BME280_humidity;BME280_pressure;Samples;Min_cycle;Max_cycle;Signal;HPM_P1;HPM_P2
2023/01/17 00:02:04;;;;;;;3.45;1.50;;;;;;;2.42;100.00;98068.13;5024852;28;20501;-77
2023/01/17 00:10:06;;;;;;;5.85;2.35;;;;;;;2.48;100.00;98081.03;5036111;28;20049;-77
2023/01/17 00:12:32;;;;;;;6.72;1.85;;;;;;;2.35;100.00;98075.69;5007740;28;20044;-76
2023/01/17 00:14:58;;;;;;;7.05;2.65;;;;;;;2.39;100.00;98073.59;5040631;28;20405;-76
2023/01/17 00:17:26;;;;;;;5.40;2.13;;;;;;;2.43;100.00;98077.38;5011112;28;20033;-76
2023/01/17 01:34:32;;;;;;;8.35;3.38;;;;;;;2.09;100.00;98227.63;5019698;28;20036;-77
2023/01/17 01:36:58;;;;;;;4.05;2.88;;;;;;;2.05;100.00;98233.22;5043753;28;20033;-76
2023/01/17 01:39:23;;;;;;;6.97;2.97;;;;;;;2.03;100.00;98232.59;5029438;28;20037;-78
2023/01/17 01:41:49;;;;;;;7.47;2.25;;;;;;;2.03;100.00;98243.59;5024434;28;20090;-77
2023/01/17 01:44:45;;;;;;;6.75;2.28;;;;;;;2.10;100.00;98236.88;5025817;28;20091;-77
2023/01/17 01:47:18;;;;;;;5.30;1.70;;;;;;;2.03;100.00;98243.59;5024328;28;20098;-77
2023/01/17 01:49:43;;;;;;;6.03;2.47;;;;;;;2.02;100.00;98254.03;5018404;28;20410;-76
2023/01/17 01:52:10;;;;;;;10.32;2.10;;;;;;;2.08;100.00;98251.59;5020158;28;20528;-76
2023/01/17 01:54:41;;;;;;;9.75;2.13;;;;;;;2.07;100.00;98264.53;5043305;28;20090;-77
2023/01/17 01:57:09;;;;;;;10.40;1.40;;;;;;;2.04;100.00;98262.31;5023485;28;20081;-76
2023/01/17 01:59:40;;;;;;;5.63;1.58;;;;;;;2.01;100.00;98265.19;5022218;28;20148;-77
2023/01/17 02:02:06;;;;;;;4.70;1.50;;;;;;;1.97;100.00;98269.84;5045568;28;20039;-76
2023/01/17 02:04:32;;;;;;;6.57;1.65;;;;;;;2.02;100.00;98285.50;5020717;28;20125;-76
2023/01/17 02:07:06;;;;;;;7.07;1.60;;;;;;;2.11;100.00;98276.03;5040858;28;20156;-76
2023/01/17 02:09:31;;;;;;;8.00;2.35;;;;;;;1.97;100.00;98290.28;5038365;28;20037;-76
2023/01/17 02:11:57;;;;;;;7.55;1.98;;;;;;;2.01;100.00;98293.31;5021180;28;20033;-77
2023/01/17 02:14:23;;;;;;;5.38;1.52;;;;;;;2.01;100.00;98294.09;5024460;28;20060;-76
2023/01/17 02:17:18;;;;;;;7.88;1.88;;;;;;;1.98;100.00;98304.66;5021304;28;20422;-77
2023/01/17 02:20:14;;;;;;;2.95;1.60;;;;;;;1.94;100.00;98299.06;5020758;28;20446;-77
2023/01/17 02:23:22;;;;;;;5.40;1.80;;;;;;;2.03;100.00;98296.50;5043774;28;20487;-77
2023/01/17 02:26:25;;;;;;;5.15;2.20;;;;;;;1.94;100.00;98304.19;5040872;28;20048;-77
2023/01/17 02:29:06;;;;;;;2.40;1.50;;;;;;;2.00;100.00;98307.84;5022107;28;20040;-76
2023/01/17 02:31:44;;;;;;;9.30;2.80;;;;;;;2.06;100.00;98312.31;5007154;28;21743;-77
2023/01/17 02:34:31;;;;;;;8.80;2.75;;;;;;;1.92;100.00;98316.34;5042806;28;20029;-77
2023/01/17 02:36:56;;;;;;;7.93;3.30;;;;;;;1.93;100.00;98320.47;5023367;28;20045;-76
2023/01/17 02:39:51;;;;;;;6.75;4.13;;;;;;;1.79;100.00;98321.13;5039898;28;20091;-76
2023/01/17 02:42:20;;;;;;;11.27;5.22;;;;;;;1.81;100.00;98316.66;5019604;28;20061;-77
2023/01/17 02:44:46;;;;;;;11.95;4.47;;;;;;;1.80;100.00;98325.28;5023847;28;20998;-77
2023/01/17 02:47:24;;;;;;;11.23;4.63;;;;;;;1.88;100.00;98330.38;5024976;28;20021;-76
2023/01/17 02:50:12;;;;;;;8.73;5.43;;;;;;;1.77;100.00;98337.56;5037319;28;20036;-77
2023/01/17 02:52:43;;;;;;;7.97;4.72;;;;;;;1.85;100.00;98337.59;5038248;28;20111;-77
2023/01/17 02:55:21;;;;;;;6.20;3.85;;;;;;;1.68;100.00;98352.91;5022220;28;20045;-78
2023/01/17 02:58:05;;;;;;;8.02;4.60;;;;;;;1.69;100.00;98341.72;5035942;28;20136;-76
2023/01/17 03:00:57;;;;;;;7.35;5.07;;;;;;;1.65;100.00;98357.53;5021682;28;20041;-77
2023/01/17 03:03:31;;;;;;;5.63;3.97;;;;;;;1.58;100.00;98359.09;5022891;28;20560;-77
2023/01/17 03:06:00;;;;;;;5.20;3.83;;;;;;;1.60;100.00;98373.34;5024637;28;20116;-77
2023/01/17 03:08:27;;;;;;;4.50;3.40;;;;;;;1.52;100.00;98378.41;5039796;28;20216;-76
2023/01/17 03:10:53;;;;;;;5.78;3.15;;;;;;;1.35;100.00;98373.25;5007094;28;20041;-77
2023/01/17 03:13:18;;;;;;;6.55;3.25;;;;;;;1.36;100.00;98381.75;5023673;28;20060;-77
2023/01/17 03:15:44;;;;;;;6.95;3.80;;;;;;;1.34;100.00;98379.34;5021083;28;20040;-77
2023/01/17 03:18:14;;;;;;;5.78;3.10;;;;;;;1.39;100.00;98378.06;5023914;28;20036;-76
2023/01/17 03:20:40;;;;;;;5.10;3.03;;;;;;;1.36;100.00;98369.78;5036765;28;20084;-76
2023/01/17 03:23:05;;;;;;;9.52;2.85;;;;;;;1.28;100.00;98371.50;5037966;28;20097;-77
2023/01/17 03:25:31;;;;;;;7.32;2.72;;;;;;;1.28;100.00;98367.22;5006078;28;20154;-76
2023/01/17 03:27:56;;;;;;;9.85;2.60;;;;;;;1.26;100.00;98375.94;5025669;28;20048;-77
2023/01/17 03:30:22;;;;;;;8.20;2.53;;;;;;;1.19;100.00;98378.34;5038964;28;20043;-77
2023/01/17 03:32:48;;;;;;;8.00;3.78;;;;;;;1.19;100.00;98374.97;5023927;28;20041;-77
2023/01/17 03:35:14;;;;;;;5.88;4.03;;;;;;;1.16;100.00;98376.88;5027909;28;20108;-77
2023/01/17 03:37:40;;;;;;;7.32;4.68;;;;;;;1.25;100.00;98382.81;5042187;28;20436;-77
2023/01/17 03:40:06;;;;;;;9.05;4.35;;;;;;;1.12;100.00;98378.16;5017304;28;20041;-76
2023/01/17 03:42:32;;;;;;;10.02;4.28;;;;;;;1.17;100.00;98377.69;5023151;28;20043;-77
2023/01/17 03:44:57;;;;;;;11.85;3.53;;;;;;;1.21;100.00;98378.19;5022640;28;20037;-77
2023/01/17 03:47:23;;;;;;;54.10;18.98;;;;;;;1.19;100.00;98383.44;5037359;28;20033;-77
2023/01/17 03:49:48;;;;;;;35.17;10.13;;;;;;;1.29;100.00;98389.22;5023389;28;20048;-75
2023/01/17 03:52:14;;;;;;;60.83;18.73;;;;;;;1.27;100.00;98390.34;5023838;28;20025;-76
2023/01/17 03:54:39;;;;;;;32.30;11.68;;;;;;;1.24;100.00;98393.97;5036223;28;20498;-75
2023/01/17 03:57:05;;;;;;;39.05;15.23;;;;;;;1.22;100.00;98390.78;5038154;28;20026;-76
2023/01/17 03:59:32;;;;;;;85.60;23.45;;;;;;;1.24;100.00;98403.41;5028112;28;20032;-76
2023/01/17 04:01:58;;;;;;;91.50;23.67;;;;;;;1.21;100.00;98407.06;5030116;28;20051;-76
2023/01/17 04:04:23;;;;;;;33.50;11.60;;;;;;;1.24;100.00;98411.84;5042708;28;20511;-77
2023/01/17 04:06:49;;;;;;;40.65;16.73;;;;;;;1.29;100.00;98408.84;5026189;28;20047;-77
2023/01/17 04:09:14;;;;;;;26.02;10.00;;;;;;;1.26;100.00;98415.06;5044085;28;20037;-76
2023/01/17 04:11:40;;;;;;;34.25;13.52;;;;;;;1.21;100.00;98417.28;5038567;28;20801;-76
2023/01/17 04:14:05;;;;;;;28.38;10.70;;;;;;;1.23;100.00;98412.03;5025040;28;20070;-76
2023/01/17 04:16:31;;;;;;;69.07;22.08;;;;;;;1.22;100.00;98420.63;5030703;28;20033;-78
2023/01/17 04:18:57;;;;;;;22.85;10.95;;;;;;;1.16;100.00;98415.19;5012065;28;20479;-77
2023/01/17 04:21:23;;;;;;;14.85;8.38;;;;;;;1.22;100.00;98413.75;5021424;28;20040;-77
2023/01/17 04:23:48;;;;;;;12.40;6.00;;;;;;;1.21;100.00;98411.38;5009516;28;20245;-76
2023/01/17 04:26:14;;;;;;;18.95;8.48;;;;;;;1.24;100.00;98411.84;5043750;28;20445;-77
2023/01/17 04:28:40;;;;;;;10.82;5.72;;;;;;;1.24;100.00;98414.41;5009805;28;20033;-76
2023/01/17 04:31:05;;;;;;;9.20;5.38;;;;;;;1.10;100.00;98405.59;5025922;28;20156;-77
2023/01/17 04:33:32;;;;;;;14.65;6.25;;;;;;;1.13;100.00;98400.19;5011227;28;20033;-77
2023/01/17 04:35:57;;;;;;;17.48;7.00;;;;;;;1.19;100.00;98398.78;5029377;28;20025;-77
2023/01/17 04:38:23;;;;;;;15.77;8.20;;;;;;;1.19;100.00;98400.50;5024311;28;20041;-77
2023/01/17 04:40:49;;;;;;;16.60;9.27;;;;;;;1.22;100.00;98393.34;5012505;28;20033;-78
2023/01/17 04:43:16;;;;;;;16.40;9.77;;;;;;;1.25;100.00;98405.81;5004899;28;20037;-76
2023/01/17 04:45:42;;;;;;;17.88;10.82;;;;;;;1.16;100.00;98406.72;5041800;22;20032;-75
2023/01/17 04:48:11;;;;;;;16.00;7.50;;;;;;;1.02;100.00;98410.66;5051552;28;20121;-77
2023/01/17 04:50:37;;;;;;;15.43;8.40;;;;;;;1.01;100.00;98409.06;5031452;28;20033;-77
2023/01/17 04:53:02;;;;;;;13.55;7.35;;;;;;;0.94;100.00;98406.31;5008158;28;20382;-77
2023/01/17 04:55:28;;;;;;;11.80;6.85;;;;;;;0.86;100.00;98410.56;5031296;28;20038;-76
2023/01/17 04:57:53;;;;;;;12.82;7.47;;;;;;;0.97;100.00;98411.09;5027550;28;20037;-79
2023/01/17 05:00:19;;;;;;;12.35;7.32;;;;;;;0.95;100.00;98413.00;5016043;28;20535;-77
2023/01/17 05:02:44;;;;;;;16.08;7.65;;;;;;;0.85;100.00;98414.88;5012343;28;20025;-77
2023/01/17 05:05:10;;;;;;;14.82;7.80;;;;;;;0.84;100.00;98423.47;5010625;28;20042;-75
2023/01/17 05:07:36;;;;;;;16.83;8.40;;;;;;;0.94;100.00;98418.25;5014106;28;20441;-79
2023/01/17 05:10:02;;;;;;;17.55;8.07;;;;;;;0.89;100.00;98412.84;5001211;28;20067;-78
2023/01/17 05:12:27;;;;;;;14.13;7.55;;;;;;;0.80;100.00;98411.19;5012239;28;20032;-76
2023/01/17 05:14:53;;;;;;;15.38;7.78;;;;;;;0.85;100.00;98417.44;5029818;28;20444;-76
2023/01/17 05:17:19;;;;;;;13.82;7.07;;;;;;;0.76;100.00;98418.34;5029897;28;20394;-78
2023/01/17 05:19:44;;;;;;;15.85;7.90;;;;;;;0.67;100.00;98429.44;5027567;28;20037;-76
2023/01/17 05:22:14;;;;;;;17.27;8.10;;;;;;;0.61;100.00;98430.84;5026786;28;20473;-77
2023/01/17 05:24:41;;;;;;;13.27;7.70;;;;;;;0.67;100.00;98427.69;4989989;28;20029;-78
2023/01/17 05:27:06;;;;;;;20.60;9.15;;;;;;;0.63;100.00;98433.25;5008471;28;20044;-77
2023/01/17 05:29:32;;;;;;;18.83;8.80;;;;;;;0.56;100.00;98431.28;5009510;28;20033;-76
2023/01/17 05:31:57;;;;;;;24.00;8.45;;;;;;;0.65;100.00;98436.47;5031829;28;20029;-77
2023/01/17 05:34:23;;;;;;;21.30;9.60;;;;;;;0.55;100.00;98439.91;5030965;28;20084;-76
2023/01/17 05:36:48;;;;;;;13.95;8.30;;;;;;;0.52;100.00;98435.09;5010310;28;20044;-78
2023/01/17 05:39:14;;;;;;;16.77;8.93;;;;;;;0.51;100.00;98440.34;5016453;28;20025;-77
2023/01/17 05:41:39;;;;;;;19.52;8.98;;;;;;;0.45;100.00;98441.72;5009844;28;20046;-78
2023/01/17 05:44:05;;;;;;;23.30;10.38;;;;;;;0.47;100.00;98444.97;5014028;28;20469;-75
2023/01/17 05:46:30;;;;;;;21.65;8.93;;;;;;;0.41;100.00;98448.06;5027379;28;20089;-77
2023/01/17 05:48:56;;;;;;;22.35;11.68;;;;;;;0.45;100.00;98451.13;5011029;28;20052;-76
2023/01/17 05:51:21;;;;;;;60.80;21.95;;;;;;;0.37;100.00;98454.41;5027828;28;20044;-76
2023/01/17 05:53:47;;;;;;;62.92;21.90;;;;;;;0.36;100.00;98461.28;5032093;28;20044;-77
2023/01/17 05:56:12;;;;;;;148.32;45.67;;;;;;;0.33;100.00;98464.13;5012365;28;20025;-77
2023/01/17 05:58:38;;;;;;;106.47;36.63;;;;;;;0.27;100.00;98464.72;5011335;28;20092;-76
2023/01/17 06:01:04;;;;;;;69.00;25.70;;;;;;;0.25;100.00;98471.72;5010634;28;20085;-75
2023/01/17 06:03:30;;;;;;;61.60;23.00;;;;;;;0.18;100.00;98473.22;5010919;28;20033;-75
2023/01/17 06:05:55;;;;;;;41.63;19.42;;;;;;;0.16;100.00;98475.13;5023673;28;20040;-77
2023/01/17 06:08:22;;;;;;;34.28;15.57;;;;;;;0.16;100.00;98470.81;5013120;28;20029;-77
2023/01/17 06:10:48;;;;;;;29.55;12.98;;;;;;;0.12;100.00;98469.50;5026497;28;20041;-76
2023/01/17 06:13:15;;;;;;;19.50;10.88;;;;;;;0.12;100.00;98463.63;5012778;28;20053;-77
2023/01/17 06:15:41;;;;;;;23.33;10.52;;;;;;;0.08;100.00;98470.75;5023734;28;20037;-75
2023/01/17 06:18:12;;;;;;;22.15;11.07;;;;;;;0.11;100.00;98478.09;5030319;28;20033;-77
2023/01/17 06:20:38;;;;;;;20.92;11.05;;;;;;;0.21;100.00;98477.22;5008682;28;20037;-77
2023/01/17 06:23:06;;;;;;;21.42;10.60;;;;;;;0.15;100.00;98476.06;5026731;28;20930;-78
2023/01/17 06:25:42;;;;;;;21.08;11.48;;;;;;;0.09;100.00;98480.00;5027171;28;20504;-74
2023/01/17 06:28:08;;;;;;;26.38;11.63;;;;;;;0.13;100.00;98477.97;5006939;28;20029;-76
2023/01/17 06:30:34;;;;;;;24.80;10.65;;;;;;;0.13;100.00;98483.88;5027580;28;20037;-76
2023/01/17 06:33:00;;;;;;;23.38;10.13;;;;;;;0.17;100.00;98477.53;5022298;28;20033;-77
2023/01/17 06:35:25;;;;;;;20.42;10.55;;;;;;;0.05;100.00;98483.78;4994980;28;20637;-74
2023/01/17 06:37:54;;;;;;;24.55;10.85;;;;;;;0.08;100.00;98485.25;5008155;28;20029;-77
2023/01/17 06:40:20;;;;;;;23.23;9.80;;;;;;;0.03;100.00;98485.69;5027887;28;20033;-77
2023/01/17 06:42:46;;;;;;;33.10;10.93;;;;;;;0.01;100.00;98489.31;5023006;28;20102;-74
2023/01/17 06:45:12;;;;;;;25.27;10.27;;;;;;;0.02;100.00;98485.81;5009032;28;20498;-77
2023/01/17 06:47:38;;;;;;;29.13;10.95;;;;;;;-0.05;100.00;98490.69;5030510;28;20037;-78
2023/01/17 06:50:05;;;;;;;25.30;9.93;;;;;;;-0.03;100.00;98484.50;5009834;28;21157;-76
2023/01/17 06:52:31;;;;;;;24.17;10.32;;;;;;;-0.14;100.00;98500.00;4990087;28;20517;-77
2023/01/17 06:54:56;;;;;;;27.98;9.48;;;;;;;-0.03;100.00;98501.56;5041740;28;20049;-76
2023/01/17 06:57:22;;;;;;;21.65;9.38;;;;;;;-0.12;100.00;98498.09;5017747;28;20029;-76
2023/01/17 06:59:47;;;;;;;23.30;10.05;;;;;;;-0.10;100.00;98506.41;5006542;28;20054;-77
2023/01/17 07:02:13;;;;;;;24.60;9.95;;;;;;;-0.17;100.00;98505.41;5027218;28;20032;-78
2023/01/17 07:04:38;;;;;;;25.98;9.88;;;;;;;-0.16;100.00;98501.09;5029467;28;20485;-77
2023/01/17 07:07:04;;;;;;;22.20;10.07;;;;;;;-0.23;100.00;98501.69;5012199;28;20081;-77
2023/01/17 07:09:29;;;;;;;23.48;9.52;;;;;;;-0.13;100.00;98506.72;5009844;28;20033;-78
2023/01/17 07:12:00;;;;;;;24.95;9.20;;;;;;;-0.15;100.00;98508.59;5014160;28;20240;-78
2023/01/17 07:14:29;;;;;;;28.05;10.35;;;;;;;-0.25;100.00;98510.38;5010804;28;20037;-77
2023/01/17 07:16:55;;;;;;;31.95;9.63;;;;;;;-0.31;100.00;98500.78;5027236;28;20063;-76
2023/01/17 07:19:21;;;;;;;23.20;9.32;;;;;;;-0.28;100.00;98506.38;5008059;28;20037;-76
2023/01/17 07:21:53;;;;;;;26.20;10.27;;;;;;;-0.24;100.00;98515.34;5007226;28;20034;-77
2023/01/17 07:24:20;;;;;;;23.60;9.05;;;;;;;-0.27;100.00;98515.63;4991276;28;20514;-77
2023/01/17 07:26:51;;;;;;;24.10;9.00;;;;;;;-0.36;100.00;98516.47;5009264;28;20394;-76
2023/01/17 07:29:17;;;;;;;19.73;9.32;;;;;;;-0.40;100.00;98512.59;5008079;28;20108;-76
2023/01/17 07:31:43;;;;;;;19.63;9.88;;;;;;;-0.43;100.00;98508.59;5006816;28;20462;-77
2023/01/17 07:34:09;;;;;;;20.10;9.52;;;;;;;-0.44;100.00;98506.19;5004958;28;20032;-77
2023/01/17 07:36:36;;;;;;;23.67;9.25;;;;;;;-0.47;100.00;98511.56;5027802;28;20046;-76
2023/01/17 07:39:02;;;;;;;21.13;9.32;;;;;;;-0.48;100.00;98512.50;5005541;28;20084;-77
2023/01/17 07:41:31;;;;;;;23.48;9.48;;;;;;;-0.49;100.00;98514.28;5023373;28;20521;-76
2023/01/17 07:44:03;;;;;;;24.27;9.88;;;;;;;-0.53;100.00;98512.91;4993807;28;20029;-76
2023/01/17 07:46:28;;;;;;;21.95;9.25;;;;;;;-0.52;100.00;98504.34;5023925;28;20072;-77
2023/01/17 07:48:53;;;;;;;17.50;8.57;;;;;;;-0.54;100.00;98508.78;5005984;28;20033;-76
2023/01/17 07:51:19;;;;;;;20.77;8.52;;;;;;;-0.53;100.00;98517.22;5024864;28;20037;-76
2023/01/17 07:53:44;;;;;;;21.75;9.20;;;;;;;-0.54;100.00;98513.09;4994156;28;20087;-77
2023/01/17 07:56:10;;;;;;;18.30;8.85;;;;;;;-0.56;100.00;98515.75;5032295;28;20037;-77
2023/01/17 07:58:35;;;;;;;31.98;11.02;;;;;;;-0.50;100.00;98516.94;5010513;28;20045;-74
2023/01/17 08:01:03;;;;;;;25.52;9.57;;;;;;;-0.51;100.00;98522.97;5026233;28;20033;-77
2023/01/17 08:03:31;;;;;;;22.90;8.43;;;;;;;-0.51;100.00;98520.44;5028086;28;20037;-77
2023/01/17 08:05:57;;;;;;;23.27;9.23;;;;;;;-0.48;100.00;98517.59;5022999;28;20033;-76
2023/01/17 08:08:23;;;;;;;21.90;9.45;;;;;;;-0.46;100.00;98515.72;5030205;28;20033;-77
2023/01/17 08:10:50;;;;;;;21.17;8.70;;;;;;;-0.47;100.00;98512.38;5008128;28;20404;-77
2023/01/17 08:13:16;;;;;;;18.30;8.73;;;;;;;-0.48;100.00;98518.41;5010572;28;20601;-77
2023/01/17 08:15:41;;;;;;;17.52;8.10;;;;;;;-0.34;100.00;98517.16;5021326;28;20104;-77
2023/01/17 08:18:07;;;;;;;22.63;9.65;;;;;;;-0.41;100.00;98516.09;5025725;28;20091;-77
2023/01/17 08:20:32;;;;;;;22.33;8.75;;;;;;;-0.41;100.00;98528.84;5029134;28;20507;-77
2023/01/17 08:22:57;;;;;;;19.33;9.43;;;;;;;-0.45;100.00;98522.44;5017188;28;20033;-77
2023/01/17 08:25:24;;;;;;;26.20;9.18;;;;;;;-0.46;100.00;98515.72;4997259;28;20025;-76
2023/01/17 08:27:55;;;;;;;20.65;8.80;;;;;;;-0.43;100.00;98521.34;5022136;28;20033;-77
2023/01/17 08:30:20;;;;;;;21.58;9.13;;;;;;;-0.34;100.00;98522.25;4990893;28;20146;-76
2023/01/17 08:32:45;;;;;;;24.27;9.52;;;;;;;-0.33;100.00;98528.13;5026357;28;20072;-77
2023/01/17 08:35:11;;;;;;;17.38;8.15;;;;;;;-0.38;100.00;98531.09;5026570;28;20060;-77
2023/01/17 08:37:37;;;;;;;24.58;9.43;;;;;;;-0.37;100.00;98521.72;5025803;28;20531;-76
2023/01/17 08:40:04;;;;;;;24.80;8.93;;;;;;;-0.22;100.00;98520.31;5015323;23;20046;-74
2023/01/17 08:42:36;;;;;;;21.55;8.93;;;;;;;-0.26;100.00;98532.53;5003688;28;20064;-74
2023/01/17 08:45:03;;;;;;;25.00;9.02;;;;;;;-0.28;100.00;98534.41;5003129;28;20038;-74
2023/01/17 08:47:28;;;;;;;22.33;10.23;;;;;;;-0.30;100.00;98538.84;5008658;28;20030;-74
2023/01/17 08:49:54;;;;;;;21.02;9.98;;;;;;;-0.21;100.00;98530.34;5007401;28;20626;-74
2023/01/17 08:52:19;;;;;;;24.75;9.65;;;;;;;-0.23;100.00;98536.50;5007975;28;20984;-74
2023/01/17 08:54:45;;;;;;;20.63;9.10;;;;;;;-0.20;100.00;98529.41;5004545;28;20140;-74
2023/01/17 08:57:10;;;;;;;18.75;8.02;;;;;;;-0.11;100.00;98537.94;4986918;28;20546;-75
2023/01/17 08:59:36;;;;;;;21.98;8.55;;;;;;;-0.09;100.00;98533.50;5004994;28;20064;-74
2023/01/17 09:02:13;;;;;;;21.90;9.50;;;;;;;0.04;100.00;98532.34;5007850;28;20490;-75
2023/01/17 09:04:39;;;;;;;18.67;8.13;;;;;;;0.10;100.00;98531.78;4988966;28;20041;-74
2023/01/17 09:07:06;;;;;;;26.55;8.40;;;;;;;0.16;100.00;98531.19;5008544;28;20034;-74
2023/01/17 09:09:31;;;;;;;17.45;7.63;;;;;;;0.17;100.00;98538.72;5005161;28;20033;-74
2023/01/17 09:11:57;;;;;;;26.67;9.32;;;;;;;0.14;100.00;98543.28;4987359;28;20451;-74
2023/01/17 09:14:23;;;;;;;29.35;8.05;;;;;;;0.13;100.00;98545.03;5006670;28;20030;-74
2023/01/17 09:16:48;;;;;;;24.75;8.27;;;;;;;0.14;100.00;98544.09;5003235;28;20042;-74
2023/01/17 09:19:14;;;;;;;24.10;7.13;;;;;;;0.19;100.00;98546.22;5012731;28;20037;-73
2023/01/17 09:21:40;;;;;;;19.10;8.68;;;;;;;0.29;100.00;98546.16;4991344;28;20038;-74
2023/01/17 09:24:05;;;;;;;19.80;8.45;;;;;;;0.29;100.00;98551.25;5011500;28;20033;-74
2023/01/17 09:26:31;;;;;;;20.60;9.13;;;;;;;0.31;100.00;98544.25;4990645;28;20057;-74
2023/01/17 09:28:57;;;;;;;20.83;7.88;;;;;;;0.32;100.00;98544.13;5006626;28;20042;-75
2023/01/17 09:31:25;;;;;;;16.85;7.35;;;;;;;0.34;100.00;98538.84;4989478;28;20125;-74
2023/01/17 09:33:53;;;;;;;21.63;7.80;;;;;;;0.50;100.00;98538.22;4991089;28;20041;-75
2023/01/17 09:36:20;;;;;;;23.02;8.70;;;;;;;0.47;100.00;98536.75;4987827;28;20150;-75
2023/01/17 09:38:46;;;;;;;16.77;7.53;;;;;;;0.49;100.00;98534.88;4971816;28;20061;-75
2023/01/17 09:41:32;;;;;;;20.55;6.80;;;;;;;0.46;100.00;98542.00;5003984;28;20042;-75
2023/01/17 09:44:22;;;;;;;29.80;7.82;;;;;;;0.52;100.00;98541.41;5004517;28;20142;-75
2023/01/17 09:46:51;;;;;;;17.92;7.10;;;;;;;0.51;100.00;98545.72;5005565;28;20046;-74
2023/01/17 09:49:42;;;;;;;17.98;7.28;;;;;;;0.51;100.00;98555.09;4990140;28;20042;-75
2023/01/17 09:52:13;;;;;;;25.08;7.85;;;;;;;0.56;100.00;98550.38;4985788;28;20054;-75
2023/01/17 09:54:40;;;;;;;20.02;7.75;;;;;;;0.58;100.00;98554.41;4990244;28;20033;-75
2023/01/17 09:57:37;;;;;;;18.50;8.15;;;;;;;0.69;100.00;98555.09;4984641;28;20053;-75
2023/01/17 10:00:37;;;;;;;23.00;7.28;;;;;;;0.71;100.00;98558.31;5001980;28;20065;-75
2023/01/17 10:03:26;;;;;;;18.67;7.57;;;;;;;0.81;100.00;98556.47;4987704;28;20158;-75
2023/01/17 10:06:02;;;;;;;14.93;7.00;;;;;;;0.77;100.00;98560.25;4987626;28;20045;-75
2023/01/17 10:08:54;;;;;;;22.10;7.38;;;;;;;0.91;100.00;98561.50;5004939;28;20030;-75
2023/01/17 10:11:42;;;;;;;23.52;7.53;;;;;;;1.01;100.00;98566.50;4994762;28;20049;-75
2023/01/17 10:14:28;;;;;;;19.95;7.63;;;;;;;0.97;100.00;98564.25;4994696;28;20026;-75
2023/01/17 10:17:12;;;;;;;16.25;7.53;;;;;;;1.01;100.00;98564.75;4983613;28;20041;-74
2023/01/17 10:20:11;;;;;;;20.13;7.32;;;;;;;0.99;100.00;98569.19;4985221;28;20037;-75
2023/01/17 10:23:08;;;;;;;18.95;8.05;;;;;;;1.05;100.00;98572.91;4986071;28;20419;-75
2023/01/17 10:25:46;;;;;;;27.08;7.82;;;;;;;1.12;100.00;98568.81;4986244;28;20046;-75
2023/01/17 10:28:22;;;;;;;19.50;6.97;;;;;;;1.23;100.00;98568.56;4989111;28;20026;-74
2023/01/17 10:30:51;;;;;;;23.10;8.48;;;;;;;1.08;100.00;98570.88;5002887;28;20046;-74
2023/01/17 10:33:21;;;;;;;22.85;7.40;;;;;;;1.10;100.00;98565.63;4987542;28;20042;-74
2023/01/17 10:35:55;;;;;;;15.95;6.97;;;;;;;1.24;100.00;98561.69;4998095;28;20042;-74
2023/01/17 10:38:34;;;;;;;21.23;6.68;;;;;;;1.35;100.00;98562.25;5003668;28;20034;-75
2023/01/17 10:41:15;;;;;;;26.15;6.82;;;;;;;1.27;99.75;98561.41;4977438;28;20262;-74
2023/01/17 10:43:51;;;;;;;14.00;6.30;;;;;;;1.24;99.92;98559.16;4988178;28;20088;-74
2023/01/17 10:46:29;;;;;;;21.00;6.28;;;;;;;1.35;100.00;98559.69;4989361;28;20155;-74
2023/01/17 10:49:00;;;;;;;15.25;4.97;;;;;;;1.35;98.86;98558.91;4990455;28;20033;-75
2023/01/17 10:51:58;;;;;;;14.10;4.93;;;;;;;1.39;97.63;98554.28;4970537;28;20053;-75
2023/01/17 10:54:44;;;;;;;19.48;5.18;;;;;;;1.29;97.71;98546.75;5003798;28;20030;-75
2023/01/17 10:57:22;;;;;;;15.45;5.00;;;;;;;1.24;97.46;98542.06;5002049;28;20046;-75
2023/01/17 10:59:57;;;;;;;16.17;6.28;;;;;;;1.22;97.97;98540.63;4990973;28;21027;-75
2023/01/17 11:02:55;;;;;;;15.68;4.95;;;;;;;1.32;98.47;98539.59;5001774;28;20042;-73
2023/01/17 11:05:29;;;;;;;11.57;4.70;;;;;;;1.33;97.46;98535.25;4976870;28;20111;-73
2023/01/17 11:08:09;;;;;;;16.30;4.82;;;;;;;1.27;97.31;98535.88;5002336;28;20511;-73
2023/01/17 11:10:45;;;;;;;20.88;5.50;;;;;;;1.29;97.82;98531.41;4952590;28;20049;-73
2023/01/17 11:13:27;;;;;;;20.20;5.82;;;;;;;1.40;97.54;98530.38;4989762;28;20057;-73
2023/01/17 11:16:15;;;;;;;19.90;5.07;;;;;;;1.36;97.30;98534.97;4976395;28;20045;-73
2023/01/17 11:30:24;;;;;;;14.90;4.05;;;;;;;1.40;94.54;98520.94;5008975;28;20052;-73
2023/01/17 11:37:22;;;;;;;9.65;3.90;;;;;;;1.51;95.15;98520.66;4965183;28;20492;-73
2023/01/17 11:59:36;;;;;;;11.75;3.70;;;;;;;1.99;89.95;98508.19;4942608;28;20053;-73
2023/01/17 12:02:38;;;;;;;8.88;2.72;;;;;;;2.01;90.65;98511.41;4936035;28;20048;-73
2023/01/17 12:05:38;;;;;;;16.30;3.40;;;;;;;2.20;90.61;98514.63;4963355;28;20166;-73
2023/01/17 12:08:50;;;;;;;16.05;3.33;;;;;;;2.25;89.18;98504.75;5004820;28;20038;-73
2023/01/17 12:16:36;;;;;;;11.20;3.22;;;;;;;2.01;88.51;98496.06;4989279;28;20096;-73
2023/01/17 12:31:15;;;;;;;12.30;3.83;;;;;;;2.07;90.03;98484.41;5002663;28;20169;-73
2023/01/17 12:33:54;;;;;;;7.07;2.83;;;;;;;2.05;89.16;98484.56;5001051;28;20229;-73
2023/01/17 12:37:13;;;;;;;10.27;3.40;;;;;;;2.07;89.14;98489.50;5018225;28;20121;-73
2023/01/17 12:51:18;;;;;;;10.43;3.17;;;;;;;2.47;85.55;98475.19;5003493;28;20475;-73
2023/01/17 12:57:38;;;;;;;11.57;3.97;;;;;;;2.64;86.70;98478.53;5000297;28;20091;-72
2023/01/17 13:00:18;;;;;;;10.77;3.08;;;;;;;2.68;85.80;98469.56;4978024;28;20129;-73
2023/01/17 13:03:08;;;;;;;8.38;2.45;;;;;;;2.63;84.01;98477.72;4993807;28;20543;-72
2023/01/17 13:05:37;;;;;;;15.85;3.90;;;;;;;2.71;85.11;98476.91;4972336;28;20132;-72
2023/01/17 13:08:41;;;;;;;12.02;3.35;;;;;;;2.74;86.35;98476.59;5006013;28;20032;-72
2023/01/17 13:11:15;;;;;;;14.68;4.00;;;;;;;2.85;86.03;98476.25;5006836;28;20037;-72
2023/01/17 13:13:42;;;;;;;10.85;2.88;;;;;;;2.81;85.82;98471.63;5004690;28;20042;-73
2023/01/17 13:16:57;;;;;;;10.02;2.88;;;;;;;2.76;85.76;98474.66;4988213;28;20075;-72
2023/01/17 13:20:21;;;;;;;11.13;3.97;;;;;;;2.67;87.24;98484.09;5005038;28;20030;-73
2023/01/17 13:22:50;;;;;;;16.10;4.07;;;;;;;2.63;87.47;98482.03;4957203;28;20509;-73
2023/01/17 13:25:34;;;;;;;10.27;2.92;;;;;;;2.68;86.23;98482.38;4992090;28;20041;-72
2023/01/17 13:28:42;;;;;;;10.52;3.60;;;;;;;2.57;85.95;98480.13;5003692;28;20088;-72
2023/01/17 13:31:17;;;;;;;12.55;3.15;;;;;;;2.57;85.77;98478.38;5000212;28;20042;-72
2023/01/17 13:34:00;;;;;;;15.75;3.85;;;;;;;2.59;85.76;98483.31;4991071;28;20487;-72
2023/01/17 13:36:46;;;;;;;18.23;5.95;;;;;;;2.45;87.08;98477.06;4978248;28;20060;-72
2023/01/17 13:39:23;;;;;;;12.55;3.90;;;;;;;2.43;87.58;98477.25;5005324;28;20559;-72
2023/01/17 13:41:53;;;;;;;10.65;2.72;;;;;;;2.37;86.42;98471.97;5005755;28;20045;-72
2023/01/17 13:44:24;;;;;;;10.88;2.90;;;;;;;2.33;87.27;98479.16;5009835;28;20049;-72
2023/01/17 13:46:59;;;;;;;9.63;2.70;;;;;;;2.33;87.74;98485.06;5001550;28;20042;-72
2023/01/17 13:49:25;;;;;;;8.20;2.40;;;;;;;2.35;87.21;98487.47;5002972;28;20062;-73
2023/01/17 13:52:02;;;;;;;15.45;2.72;;;;;;;2.32;87.10;98490.38;5018581;28;20171;-72
2023/01/17 13:54:31;;;;;;;5.57;2.38;;;;;;;2.31;87.20;98488.75;4986802;28;20045;-72
2023/01/17 13:57:22;;;;;;;12.63;3.13;;;;;;;2.30;87.83;98493.06;5004657;28;20112;-72
2023/01/17 13:59:48;;;;;;;6.82;2.13;;;;;;;2.32;87.96;98492.91;5001743;28;20042;-72
2023/01/17 14:02:32;;;;;;;14.77;2.67;;;;;;;2.34;88.00;98489.25;4991179;28;20476;-72
2023/01/17 14:05:29;;;;;;;7.85;2.60;;;;;;;2.35;87.67;98490.03;5006821;28;20124;-72
2023/01/17 14:08:00;;;;;;;10.48;2.70;;;;;;;2.33;87.56;98491.94;4987798;28;20077;-72
2023/01/17 14:10:36;;;;;;;8.35;2.03;;;;;;;2.32;87.71;98496.28;5002487;28;20054;-72
2023/01/17 14:13:03;;;;;;;15.07;3.38;;;;;;;2.30;87.43;98498.19;4989879;28;20129;-72
2023/01/17 14:15:33;;;;;;;15.10;5.07;;;;;;;2.31;87.33;98501.53;5017961;28;20096;-72
2023/01/17 14:18:01;;;;;;;18.17;5.95;;;;;;;2.31;87.49;98498.97;5000100;28;20030;-72